首页
METAR-TAF:

METAR-TAF

机场 :

突尼斯-迦太基国际机场

突尼斯, 突尼斯

纬度: 36-50N, 经度: 010-14E, 海拔: 3米

当前天气观测

该预报发布于29分钟前的12:00 UTC
风速9节,风向北转东北,在北转西北东转东北之间变化
温度 31°C
湿度 52%
气压 1014 hPa
能见度10公里或以上
散云层高于3300英尺
多云层高于4600英尺

METAR: DTTA 161200Z 02009KT 340V070 9999 SCT033 BKN046 31/20 Q1014 NOSIG

时间: 13:29 (12:29 UTC)

预报

该预报发布于1小时和29分钟前的11:00 UTC
预报有效从16日的 12点(UTC)到 17日的 12点(UTC)
风速8节,风向东北
能见度10公里或以上
散云层高于3300英尺
几率 30% :
短暂存在
从 16日的 14点(UTC)到 16日的 20点(UTC)
少量云层高于2600英尺, 塔状积云.
少量云层高于3000英尺, 积雨云.
小雨

TAF: DTTA 161100Z 1612/1712 04008KT 9999 SCT033 PROB30 TEMPO 1614/1620 -RA FEW026TCU FEW030CB

超过4000个机场的气象观测和天气预报(METAR&TAF报告)。

可查询的气象台以黄色和红色小点在地图上表示。

将鼠标移到小点上方,可查看气象台名称。

然后点击查看天气观测和预报。

如需切换地图:点击带黑十字的绿色按钮放大地图;点击带横线的绿色按钮缩小地图;或者点击绿色箭头查看邻近地区的地图。


METAR-TAF: